Sylvania, Ohio
Current Conditions -  °F | °C
As of 4:35 AM on Sunday 23 Nov 2014 (Local Time) from KDUH Reporting Station
Drizzle Drizzle  
Wind Chill: 44°   Ceiling: 2900
Heat Index: 46°   Visibility: 10mi
Dew Point: 43°   Wind: 5mph
Humidity: 87%   Direction: 200°SSW
Pressure: 29.97"   Gusts: NA
Location:  41.72°N, 83.7°W
Report Text: KDUH 230935Z AUTO 20004KT 10SM DZ BKN029 OVC080 08/06 A2997 RMK AO2
Loading
Personal Weather Stations






























Interactive Weather Map New forecast layout! Learn more

10-Day Weather Forecast

Advertisements
Track Severe Weather on mobile